Time;durP1;ratioP1;P1;durP2;ratioP2;P2;SDS_P1;SDS_P2;PMS_P1;PMS_P2;Temp;Humidity;BMP_temperature;BMP_pressure;BME280_temperature;BME280_humidity;BME280_pressure;Samples;Min_cycle;Max_cycle;Signal;HPM_P1;HPM_P2
2022/08/09 00:01:51;;;;;;;;;;;18.40;93.60;;;;;;5084864;28;19920;-70
2022/08/09 00:04:18;;;;;;;;;;;18.40;93.70;;;;;;5084520;28;19921;-70
2022/08/09 00:06:46;;;;;;;;;;;18.30;93.80;;;;;;5084859;28;20160;-71
2022/08/09 00:09:14;;;;;;;;;;;18.30;94.00;;;;;;5085163;28;19920;-71
2022/08/09 00:11:41;;;;;;;;;;;18.30;94.10;;;;;;5084669;28;19927;-70
2022/08/09 00:14:07;;;;;;;;;;;18.20;94.00;;;;;;5084556;28;19983;-71
2022/08/09 00:16:34;;;;;;;;;;;18.20;94.30;;;;;;5084626;28;19920;-70
2022/08/09 00:19:01;;;;;;;;;;;18.10;94.40;;;;;;5084611;28;19959;-70
2022/08/09 00:21:27;;;;;;;;;;;18.20;94.60;;;;;;5083784;28;19926;-70
2022/08/09 00:23:57;;;;;;;;;;;18.10;94.60;;;;;;5084354;28;19979;-71
2022/08/09 00:26:24;;;;;;;;;;;18.10;94.70;;;;;;5084334;28;19936;-71
2022/08/09 00:28:50;;;;;;;;;;;18.10;94.80;;;;;;5084652;28;19927;-70
2022/08/09 00:31:17;;;;;;;;;;;18.00;94.80;;;;;;5083874;28;19951;-70
2022/08/09 00:33:44;;;;;;;;;;;18.00;94.90;;;;;;5084107;28;19921;-71
2022/08/09 00:36:11;;;;;;;;;;;18.00;94.90;;;;;;5084340;28;19959;-70
2022/08/09 00:38:38;;;;;;;;;;;17.90;95.00;;;;;;5084226;28;19944;-70
2022/08/09 00:41:06;;;;;;;;;;;17.80;95.00;;;;;;5084461;28;19924;-70
2022/08/09 00:43:36;;;;;;;;;;;17.70;94.90;;;;;;5084894;28;19955;-70
2022/08/09 00:46:04;;;;;;;;;;;17.60;95.00;;;;;;5084641;28;19956;-71
2022/08/09 00:48:30;;;;;;;;;;;17.60;95.10;;;;;;5083980;28;19920;-70
2022/08/09 00:50:57;;;;;;;;;;;17.60;95.20;;;;;;5084020;28;19942;-71
2022/08/09 00:53:24;;;;;;;;;;;17.60;95.30;;;;;;5083627;28;19960;-70
2022/08/09 00:55:50;;;;;;;;;;;17.50;95.30;;;;;;5084040;28;19982;-70
2022/08/09 00:58:18;;;;;;;;;;;17.50;95.30;;;;;;5084161;28;19920;-71
2022/08/09 01:00:45;;;;;;;;;;;17.40;95.40;;;;;;5083979;28;19991;-70
2022/08/09 01:03:14;;;;;;;;;;;17.40;95.50;;;;;;5083608;28;19927;-70
2022/08/09 01:05:42;;;;;;;;;;;17.30;95.70;;;;;;5083703;28;19952;-71
2022/08/09 01:08:12;;;;;;;;;;;17.20;95.90;;;;;;5083893;28;19920;-70
2022/08/09 01:10:48;;;;;;;;;;;17.10;96.10;;;;;;5083912;28;19924;-70
2022/08/09 01:13:19;;;;;;;;;;;17.10;96.20;;;;;;5083551;28;19921;-71
2022/08/09 01:15:48;;;;;;;;;;;17.10;96.40;;;;;;5083509;28;19963;-70
2022/08/09 01:18:17;;;;;;;;;;;17.10;96.70;;;;;;5083355;28;20108;-70
2022/08/09 01:20:47;;;;;;;;;;;17.00;96.80;;;;;;5083662;28;20004;-69
2022/08/09 01:23:23;;;;;;;;;;;16.90;97.00;;;;;;5082800;28;19983;-71
2022/08/09 01:25:57;;;;;;;;;;;16.90;97.30;;;;;;5083303;28;20209;-70
2022/08/09 01:28:25;;;;;;;;;;;16.90;97.40;;;;;;5083396;28;19920;-70
2022/08/09 01:30:53;;;;;;;;;;;16.90;97.50;;;;;;5083444;28;19928;-70
2022/08/09 01:33:22;;;;;;;;;;;16.80;97.60;;;;;;5083404;28;20204;-70
2022/08/09 01:35:50;;;;;;;;;;;16.80;97.70;;;;;;5083299;28;19955;-70
2022/08/09 01:38:19;;;;;;;;;;;16.80;97.90;;;;;;5083349;28;19963;-70
2022/08/09 01:40:48;;;;;;;;;;;16.70;98.00;;;;;;5083381;28;19964;-71
2022/08/09 01:43:15;;;;;;;;;;;16.70;98.20;;;;;;5082118;28;20170;-72
2022/08/09 01:45:45;;;;;;;;;;;16.70;98.40;;;;;;5082917;28;20227;-71
2022/08/09 01:48:12;;;;;;;;;;;16.60;98.70;;;;;;5083125;28;19920;-71
2022/08/09 01:50:39;;;;;;;;;;;16.50;99.00;;;;;;5083457;28;19963;-71
2022/08/09 01:53:07;;;;;;;;;;;16.50;99.30;;;;;;5082709;28;19920;-70
2022/08/09 01:55:34;;;;;;;;;;;16.50;99.50;;;;;;5083042;28;20252;-70
2022/08/09 01:58:03;;;;;;;;;;;16.50;99.60;;;;;;5082800;28;19955;-71
2022/08/09 02:00:30;;;;;;;;;;;16.40;99.80;;;;;;5082947;28;19920;-70
2022/08/09 02:02:59;;;;;;;;;;;16.40;99.90;;;;;;5082672;28;20012;-70
2022/08/09 02:05:26;;;;;;;;;;;16.40;99.90;;;;;;5082776;28;19987;-70
2022/08/09 02:07:54;;;;;;;;;;;16.30;99.90;;;;;;5083046;28;19979;-70
2022/08/09 02:10:23;;;;;;;;;;;16.20;99.90;;;;;;5082950;28;19956;-70
2022/08/09 02:12:50;;;;;;;;;;;16.10;99.90;;;;;;5082938;28;19979;-72
2022/08/09 02:15:18;;;;;;;;;;;16.10;99.90;;;;;;5083201;28;19987;-68
2022/08/09 02:17:46;;;;;;;;;;;16.00;99.90;;;;;;5082998;28;19920;-69
2022/08/09 02:20:14;;;;;;;;;;;16.00;99.90;;;;;;5083053;28;19921;-72
2022/08/09 02:22:44;;;;;;;;;;;15.90;99.90;;;;;;5082327;28;20169;-70
2022/08/09 02:25:12;;;;;;;;;;;15.90;99.90;;;;;;5083058;28;19987;-69
2022/08/09 02:27:39;;;;;;;;;;;15.90;99.90;;;;;;5083128;28;19992;-70
2022/08/09 02:30:07;;;;;;;;;;;15.90;99.90;;;;;;5082996;28;20140;-69
2022/08/09 02:32:35;;;;;;;;;;;15.80;99.90;;;;;;5082902;28;20198;-70
2022/08/09 02:35:05;;;;;;;;;;;15.70;99.90;;;;;;5082912;28;19922;-70
2022/08/09 02:37:35;;;;;;;;;;;15.70;99.90;;;;;;5082411;28;19952;-71
2022/08/09 02:40:04;;;;;;;;;;;15.70;99.90;;;;;;5082120;28;19948;-71
2022/08/09 02:42:33;;;;;;;;;;;15.60;99.90;;;;;;5081512;28;19920;-70
2022/08/09 02:45:02;;;;;;;;;;;15.60;99.90;;;;;;5081502;28;19967;-70
2022/08/09 02:47:30;;;;;;;;;;;15.50;99.90;;;;;;5081694;28;19920;-71
2022/08/09 02:49:59;;;;;;;;;;;15.50;99.90;;;;;;5081614;28;20205;-71
2022/08/09 02:52:27;;;;;;;;;;;15.50;99.90;;;;;;5081625;28;19959;-71
2022/08/09 02:54:56;;;;;;;;;;;15.50;99.90;;;;;;5084973;28;19999;-70
2022/08/09 02:57:23;;;;;;;;;;;15.40;99.90;;;;;;5085108;28;19952;-70
2022/08/09 02:59:50;;;;;;;;;;;15.40;99.90;;;;;;5084896;28;20204;-70
2022/08/09 03:02:18;;;;;;;;;;;15.40;99.90;;;;;;5084867;28;19987;-70
2022/08/09 03:04:46;;;;;;;;;;;15.30;99.90;;;;;;5084605;28;19972;-72
2022/08/09 03:07:12;;;;;;;;;;;15.40;99.90;;;;;;5084853;28;19984;-72
2022/08/09 03:09:40;;;;;;;;;;;15.30;99.90;;;;;;5085064;28;20184;-71
2022/08/09 03:12:09;;;;;;;;;;;15.30;99.90;;;;;;5084884;28;19920;-71
2022/08/09 03:14:36;;;;;;;;;;;15.20;99.90;;;;;;5084421;28;19983;-72
2022/08/09 03:17:03;;;;;;;;;;;15.20;99.90;;;;;;5084495;28;19921;-72
2022/08/09 03:19:30;;;;;;;;;;;15.20;99.90;;;;;;5084812;28;19963;-71
2022/08/09 03:21:57;;;;;;;;;;;15.20;99.90;;;;;;5084195;28;20124;-71
2022/08/09 03:24:24;;;;;;;;;;;15.10;99.90;;;;;;5084394;28;19975;-71
2022/08/09 03:26:51;;;;;;;;;;;15.10;99.90;;;;;;5084580;28;19921;-71
2022/08/09 03:29:19;;;;;;;;;;;15.10;99.90;;;;;;5084490;28;19988;-71
2022/08/09 03:31:46;;;;;;;;;;;15.00;99.90;;;;;;5084468;28;19927;-71
2022/08/09 03:34:13;;;;;;;;;;;14.90;99.90;;;;;;5084345;28;19992;-71
2022/08/09 03:36:39;;;;;;;;;;;14.90;99.90;;;;;;4992503;28;2609959;-71
2022/08/09 03:39:06;;;;;;;;;;;14.90;99.90;;;;;;5085414;28;19927;-71
2022/08/09 03:41:33;;;;;;;;;;;14.80;99.90;;;;;;5085431;28;19928;-71
2022/08/09 03:43:59;;;;;;;;;;;14.80;99.90;;;;;;5085289;28;19921;-72
2022/08/09 03:46:27;;;;;;;;;;;14.70;99.90;;;;;;5085286;28;19951;-71
2022/08/09 03:48:56;;;;;;;;;;;14.60;99.90;;;;;;5085609;28;19943;-71
2022/08/09 03:51:24;;;;;;;;;;;14.60;99.90;;;;;;5085639;28;19952;-71
2022/08/09 03:53:51;;;;;;;;;;;14.60;99.90;;;;;;5084526;28;19927;-71
2022/08/09 03:56:18;;;;;;;;;;;14.60;99.90;;;;;;5085276;28;20166;-71
2022/08/09 03:58:45;;;;;;;;;;;14.60;99.90;;;;;;5085097;28;19920;-71
2022/08/09 04:01:12;;;;;;;;;;;14.50;99.90;;;;;;5085260;28;19959;-71
2022/08/09 04:03:40;;;;;;;;;;;14.60;99.90;;;;;;5084869;28;19947;-71
2022/08/09 04:06:07;;;;;;;;;;;14.60;99.90;;;;;;5084168;28;20275;-71
2022/08/09 04:08:34;;;;;;;;;;;14.60;99.90;;;;;;5085005;28;19921;-71
2022/08/09 04:11:01;;;;;;;;;;;14.60;99.90;;;;;;5084946;28;19944;-71
2022/08/09 04:13:28;;;;;;;;;;;14.50;99.90;;;;;;5084535;28;20143;-72
2022/08/09 04:15:54;;;;;;;;;;;14.50;99.90;;;;;;5084722;28;19927;-71
2022/08/09 04:18:21;;;;;;;;;;;14.50;99.90;;;;;;5084875;28;20193;-71
2022/08/09 04:20:49;;;;;;;;;;;14.50;99.90;;;;;;5084633;28;19983;-71
2022/08/09 04:23:16;;;;;;;;;;;14.50;99.90;;;;;;5084552;28;20280;-71
2022/08/09 04:25:43;;;;;;;;;;;14.40;99.90;;;;;;5084446;28;19920;-71
2022/08/09 04:28:09;;;;;;;;;;;14.40;99.90;;;;;;5084690;28;19964;-71
2022/08/09 04:30:36;;;;;;;;;;;14.40;99.90;;;;;;5084635;28;19963;-72
2022/08/09 04:33:03;;;;;;;;;;;14.40;99.90;;;;;;5084314;28;20177;-72
2022/08/09 04:35:30;;;;;;;;;;;14.50;99.90;;;;;;5083988;28;20235;-71
2022/08/09 04:37:58;;;;;;;;;;;14.40;99.90;;;;;;5084491;28;19921;-71
2022/08/09 04:40:46;;;;;;;;;;;14.50;99.90;;;;;;5084166;28;19920;-71
2022/08/09 04:43:11;;;;;;;;;;;14.50;99.90;;;;;;5083831;28;19943;-71
2022/08/09 04:45:40;;;;;;;;;;;14.50;99.90;;;;;;5084332;28;19927;-71
2022/08/09 04:48:06;;;;;;;;;;;14.50;99.90;;;;;;5084283;28;19924;-70
2022/08/09 04:50:33;;;;;;;;;;;14.50;99.90;;;;;;5084217;28;19966;-71
2022/08/09 04:53:01;;;;;;;;;;;14.50;99.90;;;;;;5082954;28;19920;-73
2022/08/09 04:55:28;;;;;;;;;;;14.60;99.90;;;;;;5083995;28;19951;-71
2022/08/09 04:57:54;;;;;;;;;;;14.60;99.90;;;;;;5083854;28;19927;-71
2022/08/09 05:00:21;;;;;;;;;;;14.60;99.90;;;;;;5083997;28;19920;-70
2022/08/09 05:02:48;;;;;;;;;;;14.70;99.90;;;;;;5083557;28;19921;-70
2022/08/09 05:05:15;;;;;;;;;;;14.70;99.90;;;;;;5083846;28;19976;-70
2022/08/09 05:07:41;;;;;;;;;;;14.80;99.90;;;;;;5083857;28;19921;-71
2022/08/09 05:10:11;;;;;;;;;;;14.80;99.90;;;;;;5083858;28;19920;-71
2022/08/09 05:12:38;;;;;;;;;;;14.90;99.90;;;;;;5083776;28;19963;-71
2022/08/09 05:15:05;;;;;;;;;;;14.90;99.90;;;;;;5083676;28;19952;-70
2022/08/09 05:17:32;;;;;;;;;;;15.00;99.90;;;;;;5083591;28;20231;-71
2022/08/09 05:19:58;;;;;;;;;;;15.10;99.90;;;;;;5083302;28;19951;-71
2022/08/09 05:22:25;;;;;;;;;;;15.10;99.90;;;;;;5083075;28;19991;-71
2022/08/09 05:24:52;;;;;;;;;;;15.20;99.90;;;;;;5083607;28;19962;-71
2022/08/09 05:27:20;;;;;;;;;;;15.30;99.90;;;;;;5083314;28;19921;-71
2022/08/09 05:29:47;;;;;;;;;;;15.40;99.90;;;;;;5083635;28;19987;-71
2022/08/09 05:32:13;;;;;;;;;;;15.40;99.90;;;;;;5083330;28;20211;-71
2022/08/09 05:34:40;;;;;;;;;;;15.50;99.90;;;;;;5083018;28;20212;-71
2022/08/09 05:37:07;;;;;;;;;;;15.60;99.90;;;;;;5083168;28;19939;-71
2022/08/09 05:39:34;;;;;;;;;;;15.70;99.90;;;;;;5083370;28;19948;-71
2022/08/09 05:42:01;;;;;;;;;;;15.90;99.90;;;;;;5083276;28;19920;-71
2022/08/09 05:44:29;;;;;;;;;;;16.00;99.90;;;;;;5082600;28;19920;-71
2022/08/09 05:46:56;;;;;;;;;;;16.20;99.90;;;;;;5082735;28;19959;-71
2022/08/09 05:49:22;;;;;;;;;;;16.30;99.90;;;;;;5083486;28;19987;-71
2022/08/09 05:51:49;;;;;;;;;;;16.50;99.90;;;;;;5083458;28;20123;-71
2022/08/09 05:54:16;;;;;;;;;;;16.60;99.90;;;;;;5082328;28;20156;-71
2022/08/09 05:56:42;;;;;;;;;;;16.70;99.90;;;;;;5083441;28;19983;-70
2022/08/09 05:59:09;;;;;;;;;;;16.80;99.90;;;;;;5083337;28;19992;-71
2022/08/09 06:01:37;;;;;;;;;;;17.00;99.90;;;;;;5083099;28;19927;-71
2022/08/09 06:04:04;;;;;;;;;;;17.10;99.90;;;;;;5083026;28;19925;-70
2022/08/09 06:06:30;;;;;;;;;;;17.10;99.90;;;;;;5083478;28;19951;-70
2022/08/09 06:08:57;;;;;;;;;;;17.20;99.90;;;;;;5083000;28;20266;-70
2022/08/09 06:11:24;;;;;;;;;;;17.40;99.90;;;;;;5083197;28;20005;-70
2022/08/09 06:13:51;;;;;;;;;;;17.50;99.90;;;;;;5082734;28;19921;-70
2022/08/09 06:16:17;;;;;;;;;;;17.60;99.90;;;;;;5082736;28;19959;-70
2022/08/09 06:18:45;;;;;;;;;;;17.80;99.90;;;;;;5083210;28;20234;-71
2022/08/09 06:21:12;;;;;;;;;;;17.80;99.90;;;;;;5082590;28;19984;-70
2022/08/09 06:23:39;;;;;;;;;;;18.00;99.90;;;;;;5081899;28;19921;-70
2022/08/09 06:26:06;;;;;;;;;;;18.10;99.90;;;;;;5082600;28;20175;-70
2022/08/09 06:28:32;;;;;;;;;;;18.20;99.90;;;;;;5084360;28;20216;-70
2022/08/09 06:30:59;;;;;;;;;;;18.20;99.90;;;;;;5086673;28;20367;-70
2022/08/09 06:33:25;;;;;;;;;;;18.30;99.90;;;;;;5086417;28;19927;-70
2022/08/09 06:35:53;;;;;;;;;;;18.40;99.90;;;;;;5086476;28;19980;-70
2022/08/09 06:38:23;;;;;;;;;;;18.40;99.90;;;;;;5086763;28;19920;-70
2022/08/09 06:40:50;;;;;;;;;;;18.50;99.90;;;;;;5087097;28;19967;-70
2022/08/09 06:43:17;;;;;;;;;;;18.60;99.90;;;;;;5086103;28;20156;-71
2022/08/09 06:45:43;;;;;;;;;;;18.70;99.90;;;;;;5086029;28;20177;-70
2022/08/09 06:48:11;;;;;;;;;;;18.80;99.90;;;;;;5086373;28;19928;-70
2022/08/09 06:50:38;;;;;;;;;;;19.00;99.90;;;;;;5086267;28;19920;-70
2022/08/09 06:53:06;;;;;;;;;;;19.00;99.90;;;;;;5085336;28;19920;-71
2022/08/09 06:55:32;;;;;;;;;;;19.20;99.90;;;;;;5086030;28;19956;-70
2022/08/09 06:58:00;;;;;;;;;;;19.20;99.90;;;;;;5085571;28;19952;-70
2022/08/09 07:00:28;;;;;;;;;;;19.30;99.90;;;;;;5086340;28;20164;-70
2022/08/09 07:02:54;;;;;;;;;;;19.30;99.90;;;;;;5085712;28;19920;-70
2022/08/09 07:05:21;;;;;;;;;;;19.40;99.90;;;;;;5086077;28;19979;-71
2022/08/09 07:07:48;;;;;;;;;;;19.50;99.90;;;;;;5086125;28;19958;-71
2022/08/09 07:10:16;;;;;;;;;;;19.60;99.90;;;;;;5085942;28;20267;-71
2022/08/09 07:12:43;;;;;;;;;;;19.70;99.90;;;;;;5085980;28;19927;-72
2022/08/09 07:15:10;;;;;;;;;;;19.80;99.90;;;;;;5085786;28;19956;-70
2022/08/09 07:17:36;;;;;;;;;;;19.90;99.90;;;;;;5085684;28;19956;-71
2022/08/09 07:20:03;;;;;;;;;;;20.00;99.90;;;;;;5085874;28;19921;-71
2022/08/09 07:22:30;;;;;;;;;;;20.10;99.90;;;;;;5085476;28;20015;-71
2022/08/09 07:24:57;;;;;;;;;;;20.20;99.90;;;;;;5085387;28;19920;-71
2022/08/09 07:27:26;;;;;;;;;;;20.20;99.90;;;;;;5085698;28;19988;-71
2022/08/09 07:29:53;;;;;;;;;;;20.30;99.90;;;;;;5085858;28;19924;-71
2022/08/09 07:32:19;;;;;;;;;;;20.40;99.90;;;;;;5085686;28;19921;-71
2022/08/09 07:34:46;;;;;;;;;;;20.50;99.90;;;;;;5085313;28;19991;-71
2022/08/09 07:37:13;;;;;;;;;;;20.50;99.90;;;;;;5085388;28;19967;-71
2022/08/09 07:39:40;;;;;;;;;;;20.70;99.90;;;;;;5084200;28;19952;-71
2022/08/09 07:42:06;;;;;;;;;;;20.90;99.90;;;;;;5085544;28;19946;-71
2022/08/09 07:44:34;;;;;;;;;;;21.00;99.90;;;;;;5085223;28;19928;-71
2022/08/09 07:47:01;;;;;;;;;;;21.10;99.90;;;;;;5084492;28;19977;-71
2022/08/09 07:49:28;;;;;;;;;;;21.30;99.90;;;;;;5085335;28;20112;-71
2022/08/09 07:51:54;;;;;;;;;;;21.40;99.90;;;;;;5085337;28;20223;-71
2022/08/09 07:54:21;;;;;;;;;;;21.50;99.90;;;;;;5084065;28;19927;-71
2022/08/09 07:56:48;;;;;;;;;;;21.70;99.90;;;;;;5085788;28;19955;-72
2022/08/09 07:59:14;;;;;;;;;;;21.80;99.30;;;;;;5085091;28;19983;-72
2022/08/09 08:01:42;;;;;;;;;;;21.90;98.50;;;;;;5085217;28;19944;-71
2022/08/09 08:04:09;;;;;;;;;;;22.00;98.10;;;;;;5084794;28;20193;-72
2022/08/09 08:06:36;;;;;;;;;;;22.10;97.60;;;;;;5084820;28;19988;-72
2022/08/09 08:09:03;;;;;;;;;;;22.10;97.60;;;;;;5085176;28;19932;-72
2022/08/09 08:11:29;;;;;;;;;;;22.20;96.60;;;;;;5085288;28;19963;-72
2022/08/09 08:13:56;;;;;;;;;;;22.30;96.70;;;;;;5084546;28;20219;-72
2022/08/09 08:16:23;;;;;;;;;;;22.50;97.40;;;;;;5084702;28;19983;-71
2022/08/09 08:18:51;;;;;;;;;;;22.50;97.10;;;;;;5084718;28;19927;-71
2022/08/09 08:21:17;;;;;;;;;;;22.60;97.00;;;;;;5084647;28;19979;-71
2022/08/09 08:23:44;;;;;;;;;;;22.60;96.50;;;;;;5084894;28;19928;-70
2022/08/09 08:26:11;;;;;;;;;;;22.70;96.20;;;;;;5084657;28;19980;-70
2022/08/09 08:28:37;;;;;;;;;;;22.80;95.70;;;;;;5084495;28;20204;-71
2022/08/09 08:31:04;;;;;;;;;;;22.80;95.70;;;;;;5084376;28;19995;-71
2022/08/09 08:33:31;;;;;;;;;;;22.90;95.30;;;;;;5084245;28;19927;-71
2022/08/09 08:35:59;;;;;;;;;;;23.00;95.40;;;;;;5084264;28;19920;-71
2022/08/09 08:38:25;;;;;;;;;;;23.10;95.00;;;;;;5084369;28;20211;-72
2022/08/09 08:40:52;;;;;;;;;;;23.10;94.30;;;;;;5084129;28;19979;-70
2022/08/09 08:43:19;;;;;;;;;;;23.20;94.20;;;;;;5084042;28;20247;-71
2022/08/09 08:45:49;;;;;;;;;;;23.30;94.20;;;;;;5084207;28;20269;-71
2022/08/09 08:48:16;;;;;;;;;;;23.40;93.40;;;;;;5084150;28;19983;-71
2022/08/09 08:50:43;;;;;;;;;;;23.50;93.40;;;;;;5083511;28;19948;-71
2022/08/09 08:53:11;;;;;;;;;;;23.50;92.80;;;;;;5083378;28;20161;-73
2022/08/09 08:55:37;;;;;;;;;;;23.60;92.60;;;;;;5084216;28;19952;-72
2022/08/09 08:58:04;;;;;;;;;;;23.60;92.80;;;;;;5084039;28;20004;-72
2022/08/09 09:00:31;;;;;;;;;;;23.60;92.80;;;;;;5084092;28;20124;-72
2022/08/09 09:02:58;;;;;;;;;;;23.70;93.00;;;;;;5083382;28;20216;-72
2022/08/09 09:05:25;;;;;;;;;;;23.80;92.60;;;;;;5084059;28;19920;-72
2022/08/09 09:07:52;;;;;;;;;;;23.80;92.10;;;;;;5084176;28;19959;-72
2022/08/09 09:10:21;;;;;;;;;;;23.80;92.30;;;;;;5083971;28;19927;-72
2022/08/09 09:12:48;;;;;;;;;;;23.90;92.50;;;;;;5083509;28;19983;-72
2022/08/09 09:15:15;;;;;;;;;;;23.90;91.60;;;;;;5083795;28;19992;-72
2022/08/09 09:17:42;;;;;;;;;;;24.00;91.80;;;;;;5084039;28;20271;-72
2022/08/09 09:20:09;;;;;;;;;;;24.10;92.00;;;;;;5083722;28;19920;-72
2022/08/09 09:22:49;;;;;;;;;;;24.10;90.60;;;;;;5082810;28;19962;-72
2022/08/09 09:25:29;;;;;;;;;;;24.20;90.80;;;;;;5084068;28;19984;-71
2022/08/09 09:27:57;;;;;;;;;;;24.30;90.80;;;;;;5083640;28;19991;-71
2022/08/09 09:30:24;;;;;;;;;;;24.40;90.50;;;;;;5083803;28;20167;-71
2022/08/09 09:33:00;;;;;;;;;;;24.40;90.10;;;;;;5083439;28;19920;-71
2022/08/09 09:35:27;;;;;;;;;;;24.50;90.40;;;;;;5083815;28;19971;-71
2022/08/09 09:37:54;;;;;;;;;;;24.50;90.20;;;;;;5083539;28;20116;-71
2022/08/09 09:40:20;;;;;;;;;;;24.50;90.20;;;;;;5083285;28;19927;-71
2022/08/09 09:42:54;;;;;;;;;;;24.60;90.30;;;;;;5083249;28;19987;-71
2022/08/09 09:45:23;;;;;;;;;;;24.70;89.90;;;;;;5083541;28;19951;-71
2022/08/09 09:47:49;;;;;;;;;;;24.80;90.10;;;;;;5083401;28;19958;-71
2022/08/09 09:50:21;;;;;;;;;;;24.90;90.00;;;;;;5083389;28;20093;-71
2022/08/09 09:52:51;;;;;;;;;;;25.00;89.80;;;;;;5082001;28;20204;-71
2022/08/09 09:55:17;;;;;;;;;;;25.10;89.00;;;;;;5083290;28;19952;-71
2022/08/09 09:57:56;;;;;;;;;;;25.20;89.60;;;;;;5083478;28;19921;-71
2022/08/09 10:00:24;;;;;;;;;;;25.20;88.80;;;;;;5083464;28;19920;-71
2022/08/09 10:02:51;;;;;;;;;;;25.20;89.00;;;;;;5082130;28;20212;-71
2022/08/09 10:05:18;;;;;;;;;;;25.20;89.40;;;;;;5083009;28;19952;-71
2022/08/09 10:07:44;;;;;;;;;;;25.30;89.00;;;;;;5082964;28;19959;-71
2022/08/09 10:10:11;;;;;;;;;;;25.30;89.00;;;;;;5083139;28;19928;-71
2022/08/09 10:12:39;;;;;;;;;;;25.40;88.80;;;;;;5083111;28;19992;-71
2022/08/09 10:15:06;;;;;;;;;;;25.50;87.90;;;;;;5083082;28;20097;-71
2022/08/09 10:17:35;;;;;;;;;;;25.60;89.30;;;;;;5083140;28;19942;-71
2022/08/09 10:20:04;;;;;;;;;;;25.70;88.60;;;;;;5082937;28;19928;-71
2022/08/09 10:22:32;;;;;;;;;;;25.80;87.30;;;;;;5082132;28;19940;-71
2022/08/09 10:24:59;;;;;;;;;;;25.90;87.00;;;;;;5083042;28;19978;-71
2022/08/09 10:27:26;;;;;;;;;;;26.00;86.30;;;;;;5082748;28;19979;-71
2022/08/09 10:29:52;;;;;;;;;;;26.10;85.30;;;;;;5082943;28;19984;-71
2022/08/09 10:32:19;;;;;;;;;;;26.10;85.40;;;;;;5082896;28;19956;-71
2022/08/09 10:34:48;;;;;;;;;;;26.20;83.00;;;;;;5082568;28;19921;-71
2022/08/09 10:37:15;;;;;;;;;;;26.30;82.10;;;;;;5082716;28;20276;-71
2022/08/09 10:39:42;;;;;;;;;;;26.40;82.20;;;;;;5083061;28;20235;-72
2022/08/09 10:42:08;;;;;;;;;;;26.40;81.10;;;;;;5082958;28;19920;-71
2022/08/09 10:44:35;;;;;;;;;;;26.40;80.50;;;;;;5082468;28;19962;-71
2022/08/09 10:47:13;;;;;;;;;;;26.50;81.30;;;;;;5082829;28;19952;-72
2022/08/09 10:49:45;;;;;;;;;;;26.60;80.00;;;;;;5083254;28;19935;-71
2022/08/09 10:52:18;;;;;;;;;;;26.60;79.20;;;;;;5082747;28;20231;-72
2022/08/09 10:54:46;;;;;;;;;;;26.80;80.90;;;;;;5081774;28;19920;-72
2022/08/09 10:57:13;;;;;;;;;;;27.00;79.80;;;;;;5082801;28;20266;-71
2022/08/09 10:59:40;;;;;;;;;;;27.10;78.00;;;;;;5082739;28;19921;-71
2022/08/09 11:02:08;;;;;;;;;;;27.30;79.40;;;;;;5082706;28;19924;-71
2022/08/09 11:04:35;;;;;;;;;;;27.30;77.80;;;;;;5082159;28;19921;-71
2022/08/09 11:07:20;;;;;;;;;;;27.30;78.10;;;;;;5082507;28;20211;-73
2022/08/09 11:09:51;;;;;;;;;;;27.30;77.60;;;;;;5082617;28;19963;-71
2022/08/09 11:12:20;;;;;;;;;;;27.30;78.50;;;;;;5082651;28;19991;-71
2022/08/09 11:14:50;;;;;;;;;;;27.40;78.40;;;;;;5084191;28;19920;-72
2022/08/09 11:17:50;;;;;;;;;;;27.50;78.40;;;;;;5085978;28;20180;-71
2022/08/09 11:20:18;;;;;;;;;;;27.60;77.80;;;;;;5085975;28;20149;-71
2022/08/09 11:23:06;;;;;;;;;;;27.70;75.80;;;;;;5085796;28;20208;-71
2022/08/09 11:25:40;;;;;;;;;;;27.70;76.30;;;;;;5082499;28;19943;-71
2022/08/09 11:28:26;;;;;;;;;;;27.80;76.10;;;;;;5086209;28;19972;-72
2022/08/09 11:30:52;;;;;;;;;;;27.90;76.30;;;;;;5086233;28;19984;-71
2022/08/09 11:33:29;;;;;;;;;;;27.90;76.40;;;;;;5085995;28;19959;-71
2022/08/09 11:35:56;;;;;;;;;;;28.00;75.70;;;;;;5085823;28;19927;-72
2022/08/09 11:38:24;;;;;;;;;;;28.20;74.80;;;;;;5085940;28;19963;-71
2022/08/09 11:40:52;;;;;;;;;;;28.40;74.60;;;;;;5085899;28;19920;-71
2022/08/09 11:43:34;;;;;;;;;;;28.40;73.20;;;;;;5085265;28;19966;-71
2022/08/09 11:46:01;;;;;;;;;;;28.50;74.10;;;;;;5085357;28;19920;-71
2022/08/09 11:48:29;;;;;;;;;;;28.50;73.80;;;;;;5085653;28;19928;-71
2022/08/09 11:51:00;;;;;;;;;;;28.50;74.80;;;;;;5085440;28;20235;-71
2022/08/09 11:53:27;;;;;;;;;;;28.60;72.70;;;;;;5084444;28;20103;-71
2022/08/09 11:55:55;;;;;;;;;;;28.60;73.60;;;;;;5085183;28;20208;-71
2022/08/09 11:58:42;;;;;;;;;;;28.70;72.50;;;;;;5085460;28;19988;-72
2022/08/09 12:01:10;;;;;;;;;;;28.80;72.40;;;;;;5085226;28;19921;-72
2022/08/09 12:03:37;;;;;;;;;;;28.90;71.90;;;;;;5084831;28;19967;-72
2022/08/09 12:06:10;;;;;;;;;;;28.90;71.30;;;;;;5085134;28;20263;-72
2022/08/09 12:08:37;;;;;;;;;;;28.90;71.80;;;;;;5085502;28;20116;-71
2022/08/09 12:11:05;;;;;;;;;;;29.10;72.20;;;;;;5085002;28;20204;-72
2022/08/09 12:13:33;;;;;;;;;;;29.10;71.40;;;;;;5084794;28;20240;-72
2022/08/09 12:16:01;;;;;;;;;;;29.20;70.90;;;;;;5084965;28;19980;-72
2022/08/09 12:18:28;;;;;;;;;;;28.80;70.50;;;;;;5084951;28;19926;-71
2022/08/09 12:20:54;;;;;;;;;;;28.70;71.20;;;;;;5084852;28;19956;-72
2022/08/09 12:23:21;;;;;;;;;;;28.80;71.90;;;;;;5084792;28;19920;-72
2022/08/09 12:25:48;;;;;;;;;;;28.90;71.10;;;;;;5084355;28;19955;-72
2022/08/09 12:28:17;;;;;;;;;;;29.00;70.20;;;;;;5084728;28;20113;-72
2022/08/09 12:30:44;;;;;;;;;;;29.10;71.10;;;;;;5084873;28;20175;-73
2022/08/09 12:33:11;;;;;;;;;;;29.20;69.60;;;;;;5084412;28;19920;-73
2022/08/09 12:35:38;;;;;;;;;;;29.30;70.10;;;;;;5084311;28;20000;-73
2022/08/09 12:38:16;;;;;;;;;;;29.40;69.20;;;;;;5084867;28;20187;-73
2022/08/09 12:40:43;;;;;;;;;;;29.40;71.00;;;;;;5084592;28;19927;-72
2022/08/09 12:43:10;;;;;;;;;;;29.50;69.00;;;;;;5084230;28;19956;-72
2022/08/09 12:45:38;;;;;;;;;;;29.50;68.10;;;;;;5084350;28;20251;-72
2022/08/09 12:48:05;;;;;;;;;;;29.50;68.30;;;;;;5084750;28;19950;-72
2022/08/09 12:50:34;;;;;;;;;;;29.30;67.50;;;;;;5084289;28;20240;-72
2022/08/09 12:53:00;;;;;;;;;;;29.20;69.40;;;;;;5084075;28;19983;-72
2022/08/09 12:55:30;;;;;;;;;;;29.20;67.50;;;;;;5084317;28;19920;-72
2022/08/09 12:57:57;;;;;;;;;;;29.30;67.20;;;;;;5084180;28;19955;-73
2022/08/09 13:00:24;;;;;;;;;;;29.50;67.70;;;;;;5084052;28;19959;-73
2022/08/09 13:02:54;;;;;;;;;;;29.60;67.90;;;;;;5084035;28;19975;-72
2022/08/09 13:05:21;;;;;;;;;;;29.80;66.90;;;;;;5083961;28;19975;-73
2022/08/09 13:08:06;;;;;;;;;;;29.80;66.10;;;;;;5083904;28;19956;-72
2022/08/09 13:10:43;;;;;;;;;;;29.80;65.80;;;;;;5083861;28;19963;-72
2022/08/09 13:13:09;;;;;;;;;;;29.80;66.20;;;;;;5083745;28;19920;-73
2022/08/09 13:15:49;;;;;;;;;;;29.90;66.80;;;;;;5083730;28;19962;-73
2022/08/09 13:18:17;;;;;;;;;;;29.90;64.70;;;;;;5084040;28;19921;-72
2022/08/09 13:20:44;;;;;;;;;;;29.90;64.30;;;;;;5083655;28;19956;-72
2022/08/09 13:23:11;;;;;;;;;;;29.80;64.50;;;;;;5083523;28;19956;-72
2022/08/09 13:25:38;;;;;;;;;;;30.00;65.90;;;;;;5083384;28;20220;-72
2022/08/09 13:28:09;;;;;;;;;;;30.10;64.40;;;;;;5083714;28;19921;-72
2022/08/09 13:30:36;;;;;;;;;;;30.10;65.80;;;;;;5083607;28;19987;-72
2022/08/09 13:33:02;;;;;;;;;;;30.20;64.70;;;;;;5083446;28;19974;-72
2022/08/09 13:35:30;;;;;;;;;;;30.20;64.90;;;;;;5083422;28;19988;-72
2022/08/09 13:37:58;;;;;;;;;;;30.40;64.90;;;;;;5082637;28;20100;-72
2022/08/09 13:40:25;;;;;;;;;;;30.70;64.40;;;;;;5083628;28;19999;-72
2022/08/09 13:42:52;;;;;;;;;;;30.90;64.30;;;;;;5083086;28;19955;-72
2022/08/09 13:45:19;;;;;;;;;;;30.90;62.40;;;;;;5083315;28;19959;-72
2022/08/09 13:47:46;;;;;;;;;;;30.90;62.40;;;;;;5083485;28;19943;-72
2022/08/09 13:50:13;;;;;;;;;;;30.90;62.40;;;;;;5083325;28;20003;-72
2022/08/09 13:52:41;;;;;;;;;;;31.00;60.70;;;;;;5082733;28;19920;-72
2022/08/09 13:55:09;;;;;;;;;;;30.90;60.30;;;;;;5083401;28;19920;-72
2022/08/09 13:57:40;;;;;;;;;;;30.90;59.20;;;;;;5083261;28;19951;-72
2022/08/09 14:00:09;;;;;;;;;;;30.50;59.70;;;;;;5083463;28;19921;-72
2022/08/09 14:02:36;;;;;;;;;;;30.40;60.10;;;;;;5083082;28;20127;-73
2022/08/09 14:05:03;;;;;;;;;;;30.30;61.70;;;;;;5082838;28;20279;-73
2022/08/09 14:07:30;;;;;;;;;;;30.40;61.10;;;;;;5083317;28;19958;-73
2022/08/09 14:09:58;;;;;;;;;;;30.60;62.20;;;;;;5083394;28;19920;-73
2022/08/09 14:12:25;;;;;;;;;;;30.70;61.00;;;;;;5083168;28;19991;-73
2022/08/09 14:14:51;;;;;;;;;;;30.60;60.50;;;;;;5082855;28;19955;-73
2022/08/09 14:17:18;;;;;;;;;;;30.70;61.00;;;;;;5083052;28;19928;-73
2022/08/09 14:19:45;;;;;;;;;;;30.90;62.00;;;;;;5082867;28;19948;-73
2022/08/09 14:22:11;;;;;;;;;;;31.00;61.60;;;;;;5083232;28;19948;-73